sensor_id;sensor_type;location;lat;lon;timestamp;pressure;altitude;pressure_sealevel;temperature;humidity
46045;BME280;31781;54.094;13.428;2023-03-15T00:01:28;100420.59;;;3.51;65.09
46045;BME280;31781;54.094;13.428;2023-03-15T00:03:31;100428.66;;;3.51;65.37
46045;BME280;31781;54.094;13.428;2023-03-15T00:05:33;100430.53;;;3.51;65.27
46045;BME280;31781;54.094;13.428;2023-03-15T00:07:34;100428.84;;;3.50;65.00
46045;BME280;31781;54.094;13.428;2023-03-15T00:09:36;100429.84;;;3.49;65.56
46045;BME280;31781;54.094;13.428;2023-03-15T00:11:37;100440.09;;;3.45;65.08
46045;BME280;31781;54.094;13.428;2023-03-15T00:13:39;100439.28;;;3.44;65.18
46045;BME280;31781;54.094;13.428;2023-03-15T00:15:46;100434.06;;;3.43;64.92
46045;BME280;31781;54.094;13.428;2023-03-15T00:17:48;100446.84;;;3.41;65.57
46045;BME280;31781;54.094;13.428;2023-03-15T00:19:52;100447.03;;;3.39;66.06
46045;BME280;31781;54.094;13.428;2023-03-15T00:21:54;100451.56;;;3.39;65.83
46045;BME280;31781;54.094;13.428;2023-03-15T00:23:55;100457.09;;;3.37;65.98
46045;BME280;31781;54.094;13.428;2023-03-15T00:25:57;100456.25;;;3.37;65.88
46045;BME280;31781;54.094;13.428;2023-03-15T00:27:59;100458.09;;;3.36;66.23
46045;BME280;31781;54.094;13.428;2023-03-15T00:30:01;100474.41;;;3.35;65.73
46045;BME280;31781;54.094;13.428;2023-03-15T00:32:03;100474.22;;;3.36;66.05
46045;BME280;31781;54.094;13.428;2023-03-15T00:34:05;100474.56;;;3.33;66.45
46045;BME280;31781;54.094;13.428;2023-03-15T00:36:10;100477.94;;;3.35;66.45
46045;BME280;31781;54.094;13.428;2023-03-15T00:38:12;100479.59;;;3.36;66.00
46045;BME280;31781;54.094;13.428;2023-03-15T00:40:14;100476.75;;;3.38;65.89
46045;BME280;31781;54.094;13.428;2023-03-15T00:42:17;100486.53;;;3.39;66.65
46045;BME280;31781;54.094;13.428;2023-03-15T00:44:19;100491.72;;;3.40;66.69
46045;BME280;31781;54.094;13.428;2023-03-15T00:46:21;100489.72;;;3.42;66.10
46045;BME280;31781;54.094;13.428;2023-03-15T00:48:23;100489.53;;;3.44;66.66
46045;BME280;31781;54.094;13.428;2023-03-15T00:50:25;100492.22;;;3.44;66.15
46045;BME280;31781;54.094;13.428;2023-03-15T00:52:34;100498.28;;;3.46;66.33
46045;BME280;31781;54.094;13.428;2023-03-15T00:54:36;100495.59;;;3.46;66.52
46045;BME280;31781;54.094;13.428;2023-03-15T00:56:38;100502.66;;;3.47;66.10
46045;BME280;31781;54.094;13.428;2023-03-15T00:58:40;100503.47;;;3.48;66.24
46045;BME280;31781;54.094;13.428;2023-03-15T01:00:43;100516.91;;;3.48;65.81
46045;BME280;31781;54.094;13.428;2023-03-15T01:02:46;100514.22;;;3.48;66.37
46045;BME280;31781;54.094;13.428;2023-03-15T01:04:49;100515.91;;;3.49;65.83
46045;BME280;31781;54.094;13.428;2023-03-15T01:06:51;100519.59;;;3.48;65.91
46045;BME280;31781;54.094;13.428;2023-03-15T01:08:56;100521.47;;;3.47;66.52
46045;BME280;31781;54.094;13.428;2023-03-15T01:11:01;100517.94;;;3.47;66.87
46045;BME280;31781;54.094;13.428;2023-03-15T01:13:03;100533.91;;;3.48;66.80
46045;BME280;31781;54.094;13.428;2023-03-15T01:15:06;100533.91;;;3.48;66.40
46045;BME280;31781;54.094;13.428;2023-03-15T01:17:09;100544.50;;;3.50;66.79
46045;BME280;31781;54.094;13.428;2023-03-15T01:19:13;100548.03;;;3.50;66.58
46045;BME280;31781;54.094;13.428;2023-03-15T01:21:15;100547.84;;;3.52;66.95
46045;BME280;31781;54.094;13.428;2023-03-15T01:23:17;100546.00;;;3.52;66.38
46045;BME280;31781;54.094;13.428;2023-03-15T01:25:20;100550.38;;;3.53;66.71
46045;BME280;31781;54.094;13.428;2023-03-15T01:27:22;100552.22;;;3.53;67.21
46045;BME280;31781;54.094;13.428;2023-03-15T01:29:24;100555.75;;;3.53;66.79
46045;BME280;31781;54.094;13.428;2023-03-15T01:31:27;100560.13;;;3.54;66.71
46045;BME280;31781;54.094;13.428;2023-03-15T01:33:30;100573.41;;;3.56;67.17
46045;BME280;31781;54.094;13.428;2023-03-15T01:35:32;100562.66;;;3.56;66.60
46045;BME280;31781;54.094;13.428;2023-03-15T01:37:33;100575.09;;;3.57;66.51
46045;BME280;31781;54.094;13.428;2023-03-15T01:39:35;100578.63;;;3.57;66.61
46045;BME280;31781;54.094;13.428;2023-03-15T01:41:38;100575.09;;;3.57;67.40
46045;BME280;31781;54.094;13.428;2023-03-15T01:43:40;100583.16;;;3.57;66.80
46045;BME280;31781;54.094;13.428;2023-03-15T01:45:56;100589.91;;;3.61;66.92
46045;BME280;31781;54.094;13.428;2023-03-15T01:48:01;100589.03;;;3.60;67.17
46045;BME280;31781;54.094;13.428;2023-03-15T01:50:08;100593.44;;;3.61;67.33
46045;BME280;31781;54.094;13.428;2023-03-15T01:52:17;100605.84;;;3.62;66.77
46045;BME280;31781;54.094;13.428;2023-03-15T01:54:24;100607.88;;;3.60;67.60
46045;BME280;31781;54.094;13.428;2023-03-15T01:56:28;100612.25;;;3.61;67.57
46045;BME280;31781;54.094;13.428;2023-03-15T01:58:34;100617.44;;;3.63;67.59
46045;BME280;31781;54.094;13.428;2023-03-15T02:00:37;100608.53;;;3.62;67.17
46045;BME280;31781;54.094;13.428;2023-03-15T02:02:45;100611.06;;;3.64;67.39
46045;BME280;31781;54.094;13.428;2023-03-15T02:04:54;100618.16;;;3.65;67.06
46045;BME280;31781;54.094;13.428;2023-03-15T02:06:59;100621.69;;;3.65;67.41
46045;BME280;31781;54.094;13.428;2023-03-15T02:09:06;100626.03;;;3.66;66.90
46045;BME280;31781;54.094;13.428;2023-03-15T02:11:09;100624.19;;;3.67;67.51
46045;BME280;31781;54.094;13.428;2023-03-15T02:13:14;100635.97;;;3.66;67.09
46045;BME280;31781;54.094;13.428;2023-03-15T02:15:19;100633.94;;;3.68;66.78
46045;BME280;31781;54.094;13.428;2023-03-15T02:17:27;100635.78;;;3.67;67.61
46045;BME280;31781;54.094;13.428;2023-03-15T02:19:39;100643.88;;;3.67;66.69
46045;BME280;31781;54.094;13.428;2023-03-15T02:21:48;100649.44;;;3.66;67.42
46045;BME280;31781;54.094;13.428;2023-03-15T02:23:58;100648.41;;;3.67;67.55
46045;BME280;31781;54.094;13.428;2023-03-15T02:26:15;100660.19;;;3.66;67.66
46045;BME280;31781;54.094;13.428;2023-03-15T02:28:20;100659.50;;;3.64;66.92
46045;BME280;31781;54.094;13.428;2023-03-15T02:30:22;100657.16;;;3.61;67.63
46045;BME280;31781;54.094;13.428;2023-03-15T02:32:24;100660.69;;;3.61;67.12
46045;BME280;31781;54.094;13.428;2023-03-15T02:34:26;100661.69;;;3.60;66.92
46045;BME280;31781;54.094;13.428;2023-03-15T02:36:29;100670.75;;;3.59;67.73
46045;BME280;31781;54.094;13.428;2023-03-15T02:38:31;100671.09;;;3.56;67.74
46045;BME280;31781;54.094;13.428;2023-03-15T02:40:33;100683.69;;;3.56;67.73
46045;BME280;31781;54.094;13.428;2023-03-15T02:42:35;100685.72;;;3.54;67.27
46045;BME280;31781;54.094;13.428;2023-03-15T02:44:41;100693.94;;;3.52;67.78
46045;BME280;31781;54.094;13.428;2023-03-15T02:46:45;100689.56;;;3.51;67.61
46045;BME280;31781;54.094;13.428;2023-03-15T02:48:48;100697.97;;;3.48;67.42
46045;BME280;31781;54.094;13.428;2023-03-15T02:50:51;100705.19;;;3.48;67.85
46045;BME280;31781;54.094;13.428;2023-03-15T02:52:53;100704.53;;;3.46;67.85
46045;BME280;31781;54.094;13.428;2023-03-15T02:54:55;100704.69;;;3.44;67.84
46045;BME280;31781;54.094;13.428;2023-03-15T02:56:57;100705.84;;;3.41;67.48
46045;BME280;31781;54.094;13.428;2023-03-15T02:58:59;100706.84;;;3.40;68.29
46045;BME280;31781;54.094;13.428;2023-03-15T03:01:03;100709.72;;;3.39;68.20
46045;BME280;31781;54.094;13.428;2023-03-15T03:03:05;100711.72;;;3.37;68.21
46045;BME280;31781;54.094;13.428;2023-03-15T03:05:07;100709.22;;;3.35;68.23
46045;BME280;31781;54.094;13.428;2023-03-15T03:07:09;100708.53;;;3.33;68.31
46045;BME280;31781;54.094;13.428;2023-03-15T03:09:11;100714.06;;;3.32;68.00
46045;BME280;31781;54.094;13.428;2023-03-15T03:11:14;100716.06;;;3.30;67.76
46045;BME280;31781;54.094;13.428;2023-03-15T03:13:16;100717.25;;;3.27;68.59
46045;BME280;31781;54.094;13.428;2023-03-15T03:15:18;100727.50;;;3.24;68.69
46045;BME280;31781;54.094;13.428;2023-03-15T03:17:22;100739.41;;;3.21;68.72
46045;BME280;31781;54.094;13.428;2023-03-15T03:19:24;100750.31;;;3.20;68.25
46045;BME280;31781;54.094;13.428;2023-03-15T03:21:26;100754.00;;;3.19;68.57
46045;BME280;31781;54.094;13.428;2023-03-15T03:23:29;100759.56;;;3.17;67.99
46045;BME280;31781;54.094;13.428;2023-03-15T03:25:31;100766.09;;;3.15;68.17
46045;BME280;31781;54.094;13.428;2023-03-15T03:27:35;100764.56;;;3.12;68.13
46045;BME280;31781;54.094;13.428;2023-03-15T03:29:38;100761.22;;;3.10;69.13
46045;BME280;31781;54.094;13.428;2023-03-15T03:31:40;100764.03;;;3.09;69.03
46045;BME280;31781;54.094;13.428;2023-03-15T03:33:43;100775.78;;;3.08;68.59
46045;BME280;31781;54.094;13.428;2023-03-15T03:35:46;100780.66;;;3.04;69.28
46045;BME280;31781;54.094;13.428;2023-03-15T03:37:48;100787.00;;;3.03;69.43
46045;BME280;31781;54.094;13.428;2023-03-15T03:39:50;100789.03;;;3.01;69.19
46045;BME280;31781;54.094;13.428;2023-03-15T03:41:52;100797.09;;;3.01;68.67
46045;BME280;31781;54.094;13.428;2023-03-15T03:43:54;100804.50;;;2.99;68.84
46045;BME280;31781;54.094;13.428;2023-03-15T03:45:56;100807.47;;;2.96;68.92
46045;BME280;31781;54.094;13.428;2023-03-15T03:47:58;100804.13;;;2.94;69.43
46045;BME280;31781;54.094;13.428;2023-03-15T03:50:01;100815.84;;;2.93;70.00
46045;BME280;31781;54.094;13.428;2023-03-15T03:52:03;100819.53;;;2.92;69.39
46045;BME280;31781;54.094;13.428;2023-03-15T03:54:05;100822.41;;;2.90;69.83
46045;BME280;31781;54.094;13.428;2023-03-15T03:56:07;100826.94;;;2.90;69.85
46045;BME280;31781;54.094;13.428;2023-03-15T03:58:09;100831.44;;;2.89;70.16
46045;BME280;31781;54.094;13.428;2023-03-15T04:00:13;100837.00;;;2.88;70.53
46045;BME280;31781;54.094;13.428;2023-03-15T04:02:16;100842.53;;;2.86;69.92
46045;BME280;31781;54.094;13.428;2023-03-15T04:04:18;100848.75;;;2.87;70.52
46045;BME280;31781;54.094;13.428;2023-03-15T04:06:21;100853.13;;;2.88;69.58
46045;BME280;31781;54.094;13.428;2023-03-15T04:08:24;100855.97;;;2.86;70.26
46045;BME280;31781;54.094;13.428;2023-03-15T04:10:26;100862.19;;;2.87;70.00
46045;BME280;31781;54.094;13.428;2023-03-15T04:12:30;100861.47;;;2.85;69.54
46045;BME280;31781;54.094;13.428;2023-03-15T04:14:32;100856.28;;;2.83;69.81
46045;BME280;31781;54.094;13.428;2023-03-15T04:16:34;100857.97;;;2.84;69.95
46045;BME280;31781;54.094;13.428;2023-03-15T04:18:36;100863.63;;;2.81;70.29
46045;BME280;31781;54.094;13.428;2023-03-15T04:20:39;100867.34;;;2.80;69.67
46045;BME280;31781;54.094;13.428;2023-03-15T04:22:42;100867.63;;;2.77;69.90
46045;BME280;31781;54.094;13.428;2023-03-15T04:24:44;100872.19;;;2.77;70.23
46045;BME280;31781;54.094;13.428;2023-03-15T04:26:46;100878.53;;;2.76;70.56
46045;BME280;31781;54.094;13.428;2023-03-15T04:28:47;100882.41;;;2.73;70.42
46045;BME280;31781;54.094;13.428;2023-03-15T04:30:50;100878.00;;;2.72;69.88
46045;BME280;31781;54.094;13.428;2023-03-15T04:32:52;100887.91;;;2.72;70.52
46045;BME280;31781;54.094;13.428;2023-03-15T04:34:54;100889.06;;;2.69;70.19
46045;BME280;31781;54.094;13.428;2023-03-15T04:36:56;100884.69;;;2.68;70.75
46045;BME280;31781;54.094;13.428;2023-03-15T04:39:00;100901.81;;;2.67;70.50
46045;BME280;31781;54.094;13.428;2023-03-15T04:41:01;100897.41;;;2.66;70.37
46045;BME280;31781;54.094;13.428;2023-03-15T04:43:04;100898.44;;;2.65;70.32
46045;BME280;31781;54.094;13.428;2023-03-15T04:45:06;100901.28;;;2.64;70.57
46045;BME280;31781;54.094;13.428;2023-03-15T04:47:08;100899.56;;;2.63;70.48
46045;BME280;31781;54.094;13.428;2023-03-15T04:49:11;100902.44;;;2.61;70.33
46045;BME280;31781;54.094;13.428;2023-03-15T04:51:13;100909.66;;;2.61;70.90
46045;BME280;31781;54.094;13.428;2023-03-15T04:53:14;100914.16;;;2.60;70.95
46045;BME280;31781;54.094;13.428;2023-03-15T04:55:18;100917.84;;;2.59;71.42
46045;BME280;31781;54.094;13.428;2023-03-15T04:57:19;100908.97;;;2.59;71.50
46045;BME280;31781;54.094;13.428;2023-03-15T04:59:21;100916.19;;;2.58;71.48
46045;BME280;31781;54.094;13.428;2023-03-15T05:01:27;100918.88;;;2.58;71.67
46045;BME280;31781;54.094;13.428;2023-03-15T05:03:28;100920.69;;;2.58;71.91
46045;BME280;31781;54.094;13.428;2023-03-15T05:05:31;100919.84;;;2.57;71.92
46045;BME280;31781;54.094;13.428;2023-03-15T05:07:34;100920.53;;;2.59;72.33
46045;BME280;31781;54.094;13.428;2023-03-15T05:09:37;100921.38;;;2.60;71.88
46045;BME280;31781;54.094;13.428;2023-03-15T05:11:42;100920.38;;;2.61;72.16
46045;BME280;31781;54.094;13.428;2023-03-15T05:13:44;100922.09;;;2.62;72.42
46045;BME280;31781;54.094;13.428;2023-03-15T05:15:45;100925.63;;;2.62;71.56
46045;BME280;31781;54.094;13.428;2023-03-15T05:17:47;100929.97;;;2.63;72.18
46045;BME280;31781;54.094;13.428;2023-03-15T05:19:49;100937.88;;;2.65;71.66
46045;BME280;31781;54.094;13.428;2023-03-15T05:21:51;100940.72;;;2.63;72.53
46045;BME280;31781;54.094;13.428;2023-03-15T05:23:53;100941.56;;;2.64;71.68
46045;BME280;31781;54.094;13.428;2023-03-15T05:25:56;100941.56;;;2.64;72.12
46045;BME280;31781;54.094;13.428;2023-03-15T05:28:01;100945.94;;;2.65;71.21
46045;BME280;31781;54.094;13.428;2023-03-15T05:30:04;100948.78;;;2.63;71.59
46045;BME280;31781;54.094;13.428;2023-03-15T05:32:07;100955.97;;;2.63;71.60
46045;BME280;31781;54.094;13.428;2023-03-15T05:34:09;100958.84;;;2.61;71.13
46045;BME280;31781;54.094;13.428;2023-03-15T05:36:10;100975.09;;;2.60;71.33
46045;BME280;31781;54.094;13.428;2023-03-15T05:38:12;100974.25;;;2.59;71.89
46045;BME280;31781;54.094;13.428;2023-03-15T05:40:15;100975.09;;;2.60;71.68
46045;BME280;31781;54.094;13.428;2023-03-15T05:42:17;100986.00;;;2.58;70.85
46045;BME280;31781;54.094;13.428;2023-03-15T05:44:23;100984.31;;;2.57;70.98
46045;BME280;31781;54.094;13.428;2023-03-15T05:46:25;100994.34;;;2.55;71.84
46045;BME280;31781;54.094;13.428;2023-03-15T05:48:26;100995.19;;;2.56;71.21
46045;BME280;31781;54.094;13.428;2023-03-15T05:50:28;101006.97;;;2.55;71.08
46045;BME280;31781;54.094;13.428;2023-03-15T05:52:30;101004.41;;;2.53;72.13
46045;BME280;31781;54.094;13.428;2023-03-15T05:54:32;101005.25;;;2.54;71.70
46045;BME280;31781;54.094;13.428;2023-03-15T05:56:33;101010.63;;;2.54;71.09
46045;BME280;31781;54.094;13.428;2023-03-15T05:58:35;101019.38;;;2.56;71.74
46045;BME280;31781;54.094;13.428;2023-03-15T06:00:39;101026.56;;;2.55;72.14
46045;BME280;31781;54.094;13.428;2023-03-15T06:02:41;101021.19;;;2.55;71.35
46045;BME280;31781;54.094;13.428;2023-03-15T06:04:43;101025.59;;;2.56;71.98
46045;BME280;31781;54.094;13.428;2023-03-15T06:06:44;101023.88;;;2.55;71.42
46045;BME280;31781;54.094;13.428;2023-03-15T06:08:46;101038.03;;;2.57;71.81
46045;BME280;31781;54.094;13.428;2023-03-15T06:10:48;101029.00;;;2.58;71.48
46045;BME280;31781;54.094;13.428;2023-03-15T06:12:50;101029.84;;;2.59;71.67
46045;BME280;31781;54.094;13.428;2023-03-15T06:14:52;101036.88;;;2.60;71.86
46045;BME280;31781;54.094;13.428;2023-03-15T06:16:55;101039.25;;;2.63;71.76
46045;BME280;31781;54.094;13.428;2023-03-15T06:18:57;101043.34;;;2.67;71.56
46045;BME280;31781;54.094;13.428;2023-03-15T06:20:58;101051.94;;;2.70;71.94
46045;BME280;31781;54.094;13.428;2023-03-15T06:23:00;101045.44;;;2.73;71.87
46045;BME280;31781;54.094;13.428;2023-03-15T06:25:02;101043.97;;;2.78;71.32
46045;BME280;31781;54.094;13.428;2023-03-15T06:27:03;101050.72;;;2.82;71.01
46045;BME280;31781;54.094;13.428;2023-03-15T06:29:05;101052.97;;;2.87;71.11
46045;BME280;31781;54.094;13.428;2023-03-15T06:31:07;101051.69;;;2.91;71.24
46045;BME280;31781;54.094;13.428;2023-03-15T06:33:12;101059.13;;;2.97;71.24
46045;BME280;31781;54.094;13.428;2023-03-15T06:35:14;101063.19;;;3.01;70.87
46045;BME280;31781;54.094;13.428;2023-03-15T06:37:15;101067.13;;;3.07;70.45
46045;BME280;31781;54.094;13.428;2023-03-15T06:39:33;101071.03;;;3.12;71.13
46045;BME280;31781;54.094;13.428;2023-03-15T06:41:35;101073.25;;;3.17;70.98
46045;BME280;31781;54.094;13.428;2023-03-15T06:43:37;101073.50;;;3.23;70.77
46045;BME280;31781;54.094;13.428;2023-03-15T06:45:39;101084.66;;;3.28;69.97
46045;BME280;31781;54.094;13.428;2023-03-15T06:47:41;101079.63;;;3.33;70.43
46045;BME280;31781;54.094;13.428;2023-03-15T06:49:44;101078.19;;;3.39;70.24
46045;BME280;31781;54.094;13.428;2023-03-15T06:51:45;101084.78;;;3.44;69.73
46045;BME280;31781;54.094;13.428;2023-03-15T06:53:47;101080.78;;;3.49;69.76
46045;BME280;31781;54.094;13.428;2023-03-15T06:55:49;101090.44;;;3.59;69.70
46045;BME280;31781;54.094;13.428;2023-03-15T06:57:51;101096.75;;;3.68;69.75
46045;BME280;31781;54.094;13.428;2023-03-15T06:59:54;101100.97;;;3.70;69.12
46045;BME280;31781;54.094;13.428;2023-03-15T07:01:56;101098.13;;;3.72;69.09
46045;BME280;31781;54.094;13.428;2023-03-15T07:03:59;101109.56;;;3.74;68.54
46045;BME280;31781;54.094;13.428;2023-03-15T07:06:02;101115.78;;;3.74;69.28
46045;BME280;31781;54.094;13.428;2023-03-15T07:08:04;101114.66;;;3.77;69.37
46045;BME280;31781;54.094;13.428;2023-03-15T07:10:06;101123.41;;;3.79;68.90
46045;BME280;31781;54.094;13.428;2023-03-15T07:12:09;101125.97;;;3.80;68.78
46045;BME280;31781;54.094;13.428;2023-03-15T07:14:11;101133.72;;;3.83;68.64
46045;BME280;31781;54.094;13.428;2023-03-15T07:16:13;101131.88;;;3.84;68.90
46045;BME280;31781;54.094;13.428;2023-03-15T07:18:15;101133.72;;;3.83;68.93
46045;BME280;31781;54.094;13.428;2023-03-15T07:20:17;101134.06;;;3.88;68.86
46045;BME280;31781;54.094;13.428;2023-03-15T07:22:21;101139.00;;;3.93;68.32
46045;BME280;31781;54.094;13.428;2023-03-15T07:24:23;101148.59;;;3.96;68.17
46045;BME280;31781;54.094;13.428;2023-03-15T07:26:25;101150.28;;;3.97;68.23
46045;BME280;31781;54.094;13.428;2023-03-15T07:28:27;101152.06;;;4.06;68.51
46045;BME280;31781;54.094;13.428;2023-03-15T07:30:29;101151.75;;;4.09;67.39
46045;BME280;31781;54.094;13.428;2023-03-15T07:32:30;101156.81;;;4.12;68.29
46045;BME280;31781;54.094;13.428;2023-03-15T07:34:32;101154.63;;;4.15;67.50
46045;BME280;31781;54.094;13.428;2023-03-15T07:36:34;101155.34;;;4.17;68.08
46045;BME280;31781;54.094;13.428;2023-03-15T07:38:37;101163.09;;;4.20;67.82
46045;BME280;31781;54.094;13.428;2023-03-15T07:40:41;101161.94;;;4.23;67.89
46045;BME280;31781;54.094;13.428;2023-03-15T07:42:42;101164.81;;;4.29;67.10
46045;BME280;31781;54.094;13.428;2023-03-15T07:44:44;101160.66;;;4.35;66.85
46045;BME280;31781;54.094;13.428;2023-03-15T07:46:46;101164.25;;;4.43;67.44
46045;BME280;31781;54.094;13.428;2023-03-15T07:48:48;101166.63;;;4.47;67.50
46045;BME280;31781;54.094;13.428;2023-03-15T07:50:50;101168.88;;;4.59;67.25
46045;BME280;31781;54.094;13.428;2023-03-15T07:52:52;101172.81;;;4.65;67.41
46045;BME280;31781;54.094;13.428;2023-03-15T07:54:55;101169.81;;;4.76;67.01
46045;BME280;31781;54.094;13.428;2023-03-15T07:56:57;101174.75;;;4.88;66.87
46045;BME280;31781;54.094;13.428;2023-03-15T07:58:59;101179.00;;;4.99;65.59
46045;BME280;31781;54.094;13.428;2023-03-15T08:01:04;101182.44;;;5.09;64.54
46045;BME280;31781;54.094;13.428;2023-03-15T08:03:06;101182.28;;;5.19;64.67
46045;BME280;31781;54.094;13.428;2023-03-15T08:05:08;101184.69;;;5.30;64.68
46045;BME280;31781;54.094;13.428;2023-03-15T08:07:10;101188.78;;;5.42;64.68
46045;BME280;31781;54.094;13.428;2023-03-15T08:09:11;101174.28;;;5.51;64.14
46045;BME280;31781;54.094;13.428;2023-03-15T08:11:15;101190.16;;;5.62;63.62
46045;BME280;31781;54.094;13.428;2023-03-15T08:13:16;101187.13;;;5.73;63.69
46045;BME280;31781;54.094;13.428;2023-03-15T08:15:18;101191.53;;;5.82;62.65
46045;BME280;31781;54.094;13.428;2023-03-15T08:17:20;101188.69;;;5.92;62.68
46045;BME280;31781;54.094;13.428;2023-03-15T08:19:22;101190.22;;;6.03;62.05
46045;BME280;31781;54.094;13.428;2023-03-15T08:21:26;101184.81;;;6.11;61.99
46045;BME280;31781;54.094;13.428;2023-03-15T08:23:27;101193.59;;;6.21;61.25
46045;BME280;31781;54.094;13.428;2023-03-15T08:25:31;101192.44;;;6.31;61.46
46045;BME280;31781;54.094;13.428;2023-03-15T08:27:35;101199.34;;;6.42;60.26
46045;BME280;31781;54.094;13.428;2023-03-15T08:29:40;101207.94;;;6.54;60.74
46045;BME280;31781;54.094;13.428;2023-03-15T08:31:42;101207.09;;;6.61;59.99
46045;BME280;31781;54.094;13.428;2023-03-15T08:33:47;101206.19;;;6.69;59.25
46045;BME280;31781;54.094;13.428;2023-03-15T08:35:52;101209.91;;;6.76;59.48
46045;BME280;31781;54.094;13.428;2023-03-15T08:37:55;101210.06;;;6.82;59.06
46045;BME280;31781;54.094;13.428;2023-03-15T08:39:56;101212.41;;;6.94;58.76
46045;BME280;31781;54.094;13.428;2023-03-15T08:41:58;101213.38;;;7.01;58.46
46045;BME280;31781;54.094;13.428;2023-03-15T08:44:01;101211.50;;;7.09;57.86
46045;BME280;31781;54.094;13.428;2023-03-15T08:46:03;101217.03;;;7.16;56.90
46045;BME280;31781;54.094;13.428;2023-03-15T08:48:05;101221.38;;;7.25;57.77
46045;BME280;31781;54.094;13.428;2023-03-15T08:50:09;101217.63;;;7.34;56.47
46045;BME280;31781;54.094;13.428;2023-03-15T08:52:12;101229.09;;;7.44;56.98
46045;BME280;31781;54.094;13.428;2023-03-15T08:54:13;101223.28;;;7.55;57.08
46045;BME280;31781;54.094;13.428;2023-03-15T08:56:15;101222.88;;;7.66;56.43
46045;BME280;31781;54.094;13.428;2023-03-15T08:58:17;101232.66;;;7.75;55.99
46045;BME280;31781;54.094;13.428;2023-03-15T09:00:21;101232.41;;;7.85;55.10
46045;BME280;31781;54.094;13.428;2023-03-15T09:02:23;101226.72;;;7.95;54.98
46045;BME280;31781;54.094;13.428;2023-03-15T09:04:25;101232.78;;;8.05;55.33
46045;BME280;31781;54.094;13.428;2023-03-15T09:06:27;101240.84;;;8.13;55.39
46045;BME280;31781;54.094;13.428;2023-03-15T09:08:29;101243.47;;;8.21;54.34
46045;BME280;31781;54.094;13.428;2023-03-15T09:10:30;101247.00;;;8.29;53.78
46045;BME280;31781;54.094;13.428;2023-03-15T09:12:32;101245.72;;;8.40;53.86
46045;BME280;31781;54.094;13.428;2023-03-15T09:14:34;101247.16;;;8.51;53.78
46045;BME280;31781;54.094;13.428;2023-03-15T09:16:37;101253.34;;;8.59;52.67
46045;BME280;31781;54.094;13.428;2023-03-15T09:18:39;101248.13;;;8.72;52.71
46045;BME280;31781;54.094;13.428;2023-03-15T09:20:40;101250.38;;;8.84;52.70
46045;BME280;31781;54.094;13.428;2023-03-15T09:22:43;101261.84;;;8.94;52.68
46045;BME280;31781;54.094;13.428;2023-03-15T09:24:51;101250.06;;;9.01;53.04
46045;BME280;31781;54.094;13.428;2023-03-15T09:26:53;101252.94;;;9.14;51.89
46045;BME280;31781;54.094;13.428;2023-03-15T09:28:54;101254.34;;;9.25;51.22
46045;BME280;31781;54.094;13.428;2023-03-15T09:30:56;101262.69;;;9.38;51.93
46045;BME280;31781;54.094;13.428;2023-03-15T09:33:02;101260.31;;;9.50;52.43
46045;BME280;31781;54.094;13.428;2023-03-15T09:35:07;101263.88;;;9.50;51.12
46045;BME280;31781;54.094;13.428;2023-03-15T09:37:09;101267.78;;;9.62;50.97
46045;BME280;31781;54.094;13.428;2023-03-15T09:39:11;101265.75;;;9.64;49.06
46045;BME280;31781;54.094;13.428;2023-03-15T09:41:17;101273.03;;;9.64;49.80
46045;BME280;31781;54.094;13.428;2023-03-15T09:43:34;101267.84;;;9.69;48.70
46045;BME280;31781;54.094;13.428;2023-03-15T09:45:51;101271.75;;;9.60;48.13
46045;BME280;31781;54.094;13.428;2023-03-15T09:48:05;101268.19;;;9.59;47.83
46045;BME280;31781;54.094;13.428;2023-03-15T09:50:17;101269.47;;;9.63;47.12
46045;BME280;31781;54.094;13.428;2023-03-15T09:52:29;101268.09;;;9.53;47.53
46045;BME280;31781;54.094;13.428;2023-03-15T09:54:38;101272.59;;;9.46;47.20
46045;BME280;31781;54.094;13.428;2023-03-15T09:56:48;101281.00;;;9.51;47.43
46045;BME280;31781;54.094;13.428;2023-03-15T09:58:56;101293.38;;;9.53;46.49
46045;BME280;31781;54.094;13.428;2023-03-15T10:01:02;101288.03;;;9.60;45.79
46045;BME280;31781;54.094;13.428;2023-03-15T10:03:14;101292.25;;;9.48;47.47
46045;BME280;31781;54.094;13.428;2023-03-15T10:05:19;101286.91;;;9.40;45.46
46045;BME280;31781;54.094;13.428;2023-03-15T10:07:23;101299.84;;;9.38;46.52
46045;BME280;31781;54.094;13.428;2023-03-15T10:09:27;101296.56;;;9.27;43.93
46045;BME280;31781;54.094;13.428;2023-03-15T10:11:35;101297.13;;;9.23;44.56
46045;BME280;31781;54.094;13.428;2023-03-15T10:13:57;101298.53;;;9.19;46.72
46045;BME280;31781;54.094;13.428;2023-03-15T10:16:10;101300.88;;;9.07;44.55
46045;BME280;31781;54.094;13.428;2023-03-15T10:18:28;101303.22;;;9.10;46.30
46045;BME280;31781;54.094;13.428;2023-03-15T10:20:38;101304.13;;;9.03;44.89
46045;BME280;31781;54.094;13.428;2023-03-15T10:22:47;101303.50;;;9.15;46.00
46045;BME280;31781;54.094;13.428;2023-03-15T10:24:55;101303.28;;;9.17;46.89
46045;BME280;31781;54.094;13.428;2023-03-15T10:26:58;101301.34;;;9.11;44.23
46045;BME280;31781;54.094;13.428;2023-03-15T10:29:12;101312.66;;;9.14;46.82
46045;BME280;31781;54.094;13.428;2023-03-15T10:31:17;101303.03;;;9.26;45.83
46045;BME280;31781;54.094;13.428;2023-03-15T10:33:36;101321.09;;;9.19;43.91
46045;BME280;31781;54.094;13.428;2023-03-15T10:35:38;101306.41;;;9.28;43.64
46045;BME280;31781;54.094;13.428;2023-03-15T10:37:40;101313.69;;;9.43;43.52
46045;BME280;31781;54.094;13.428;2023-03-15T10:39:43;101313.44;;;9.52;44.33
46045;BME280;31781;54.094;13.428;2023-03-15T10:41:48;101326.16;;;9.52;44.24
46045;BME280;31781;54.094;13.428;2023-03-15T10:43:57;101323.16;;;9.47;44.57
46045;BME280;31781;54.094;13.428;2023-03-15T10:46:00;101322.69;;;9.43;44.34